sensor_id;sensor_type;location;lat;lon;timestamp;pressure;altitude;pressure_sealevel;temperature;humidity
5500;BME280;2772;42.700;23.304;2022-11-20T00:00:38;94392.69;;;16.84;100.00
5500;BME280;2772;42.700;23.304;2022-11-20T00:03:04;94390.44;;;17.15;100.00
5500;BME280;2772;42.700;23.304;2022-11-20T00:05:33;94378.81;;;17.08;100.00
5500;BME280;2772;42.700;23.304;2022-11-20T00:08:00;94399.91;;;17.06;100.00
5500;BME280;2772;42.700;23.304;2022-11-20T00:10:27;94388.19;;;17.21;100.00
5500;BME280;2772;42.700;23.304;2022-11-20T00:12:53;94400.84;;;17.20;100.00
5500;BME280;2772;42.700;23.304;2022-11-20T00:15:20;94375.94;;;17.23;100.00
5500;BME280;2772;42.700;23.304;2022-11-20T00:17:47;94385.25;;;17.33;100.00
5500;BME280;2772;42.700;23.304;2022-11-20T00:20:14;94380.66;;;17.33;100.00
5500;BME280;2772;42.700;23.304;2022-11-20T00:22:42;94387.84;;;17.52;100.00
5500;BME280;2772;42.700;23.304;2022-11-20T00:25:09;94387.56;;;17.61;100.00
5500;BME280;2772;42.700;23.304;2022-11-20T00:27:36;94390.63;;;17.59;100.00
5500;BME280;2772;42.700;23.304;2022-11-20T00:30:04;94409.84;;;17.61;100.00
5500;BME280;2772;42.700;23.304;2022-11-20T00:32:31;94403.31;;;17.59;100.00
5500;BME280;2772;42.700;23.304;2022-11-20T00:34:58;94402.50;;;17.58;100.00
5500;BME280;2772;42.700;23.304;2022-11-20T00:37:25;94379.53;;;17.68;100.00
5500;BME280;2772;42.700;23.304;2022-11-20T00:39:53;94363.53;;;17.82;100.00
5500;BME280;2772;42.700;23.304;2022-11-20T00:42:19;94376.34;;;17.92;100.00
5500;BME280;2772;42.700;23.304;2022-11-20T00:44:46;94376.63;;;18.20;100.00
5500;BME280;2772;42.700;23.304;2022-11-20T00:47:13;94405.66;;;18.37;100.00
5500;BME280;2772;42.700;23.304;2022-11-20T00:49:39;94373.38;;;18.40;100.00
5500;BME280;2772;42.700;23.304;2022-11-20T00:52:06;94404.66;;;18.52;100.00
5500;BME280;2772;42.700;23.304;2022-11-20T00:54:33;94388.88;;;18.54;100.00
5500;BME280;2772;42.700;23.304;2022-11-20T00:57:01;94397.88;;;18.68;100.00
5500;BME280;2772;42.700;23.304;2022-11-20T00:59:28;94375.94;;;18.77;100.00
5500;BME280;2772;42.700;23.304;2022-11-20T01:01:54;94385.94;;;18.73;100.00
5500;BME280;2772;42.700;23.304;2022-11-20T01:04:21;94374.75;;;18.71;100.00
5500;BME280;2772;42.700;23.304;2022-11-20T01:06:48;94382.53;;;18.79;100.00
5500;BME280;2772;42.700;23.304;2022-11-20T01:09:16;94358.63;;;18.78;100.00
5500;BME280;2772;42.700;23.304;2022-11-20T01:11:44;94375.91;;;18.70;100.00
5500;BME280;2772;42.700;23.304;2022-11-20T01:14:14;94356.59;;;18.68;100.00
5500;BME280;2772;42.700;23.304;2022-11-20T01:16:43;94375.22;;;18.83;100.00
5500;BME280;2772;42.700;23.304;2022-11-20T01:19:12;94364.00;;;18.81;100.00
5500;BME280;2772;42.700;23.304;2022-11-20T01:21:41;94360.19;;;18.82;100.00
5500;BME280;2772;42.700;23.304;2022-11-20T01:24:12;94384.06;;;18.80;100.00
5500;BME280;2772;42.700;23.304;2022-11-20T01:26:40;94338.94;;;18.77;100.00
5500;BME280;2772;42.700;23.304;2022-11-20T01:29:10;94364.38;;;18.76;100.00
5500;BME280;2772;42.700;23.304;2022-11-20T01:31:40;94351.34;;;18.85;100.00
5500;BME280;2772;42.700;23.304;2022-11-20T01:34:13;94345.22;;;18.92;100.00
5500;BME280;2772;42.700;23.304;2022-11-20T01:36:41;94344.44;;;18.95;100.00
5500;BME280;2772;42.700;23.304;2022-11-20T01:39:12;94350.59;;;18.95;100.00
5500;BME280;2772;42.700;23.304;2022-11-20T01:41:39;94335.91;;;18.89;100.00
5500;BME280;2772;42.700;23.304;2022-11-20T01:44:51;94347.47;;;18.86;100.00
5500;BME280;2772;42.700;23.304;2022-11-20T01:47:25;94346.31;;;18.84;100.00
5500;BME280;2772;42.700;23.304;2022-11-20T01:49:56;94345.13;;;18.81;100.00
5500;BME280;2772;42.700;23.304;2022-11-20T01:52:27;94347.81;;;18.81;100.00
5500;BME280;2772;42.700;23.304;2022-11-20T01:54:59;94360.22;;;18.89;100.00
5500;BME280;2772;42.700;23.304;2022-11-20T01:57:29;94354.06;;;18.92;100.00
5500;BME280;2772;42.700;23.304;2022-11-20T02:00:04;94356.41;;;18.98;100.00
5500;BME280;2772;42.700;23.304;2022-11-20T02:02:33;94349.44;;;18.93;100.00
5500;BME280;2772;42.700;23.304;2022-11-20T02:05:16;94354.84;;;18.93;100.00
5500;BME280;2772;42.700;23.304;2022-11-20T02:07:45;94355.25;;;18.95;100.00
5500;BME280;2772;42.700;23.304;2022-11-20T02:10:14;94343.69;;;18.98;100.00
5500;BME280;2772;42.700;23.304;2022-11-20T02:12:41;94352.97;;;19.04;100.00
5500;BME280;2772;42.700;23.304;2022-11-20T02:15:25;94324.44;;;19.03;100.00
5500;BME280;2772;42.700;23.304;2022-11-20T02:17:53;94340.63;;;19.00;100.00
5500;BME280;2772;42.700;23.304;2022-11-20T02:20:20;94351.00;;;18.98;100.00
5500;BME280;2772;42.700;23.304;2022-11-20T02:22:51;94353.72;;;18.98;100.00
5500;BME280;2772;42.700;23.304;2022-11-20T02:25:21;94347.53;;;18.97;100.00
5500;BME280;2772;42.700;23.304;2022-11-20T02:27:48;94349.84;;;18.98;100.00
5500;BME280;2772;42.700;23.304;2022-11-20T02:30:15;94364.47;;;18.94;100.00
5500;BME280;2772;42.700;23.304;2022-11-20T02:32:42;94360.66;;;18.98;100.00
5500;BME280;2772;42.700;23.304;2022-11-20T02:35:35;94336.34;;;18.98;100.00
5500;BME280;2772;42.700;23.304;2022-11-20T02:37:58;94350.22;;;18.97;100.00
5500;BME280;2772;42.700;23.304;2022-11-20T02:40:27;94358.31;;;18.90;100.00
5500;BME280;2772;42.700;23.304;2022-11-20T02:42:54;94371.38;;;18.88;100.00
5500;BME280;2772;42.700;23.304;2022-11-20T02:45:21;94365.22;;;18.91;100.00
5500;BME280;2772;42.700;23.304;2022-11-20T02:47:49;94374.16;;;18.95;100.00
5500;BME280;2772;42.700;23.304;2022-11-20T02:50:15;94380.25;;;18.88;100.00
5500;BME280;2772;42.700;23.304;2022-11-20T02:52:42;94375.66;;;18.89;100.00
5500;BME280;2772;42.700;23.304;2022-11-20T02:55:09;94389.91;;;18.89;100.00
5500;BME280;2772;42.700;23.304;2022-11-20T02:57:37;94378.31;;;18.85;100.00
5500;BME280;2772;42.700;23.304;2022-11-20T03:00:05;94393.72;;;18.85;100.00
5500;BME280;2772;42.700;23.304;2022-11-20T03:02:33;94399.88;;;18.82;100.00
5500;BME280;2772;42.700;23.304;2022-11-20T03:05:00;94411.03;;;18.80;100.00
5500;BME280;2772;42.700;23.304;2022-11-20T03:07:27;94403.31;;;18.79;100.00
5500;BME280;2772;42.700;23.304;2022-11-20T03:09:53;94392.88;;;18.74;100.00
5500;BME280;2772;42.700;23.304;2022-11-20T03:12:20;94413.72;;;18.77;100.00
5500;BME280;2772;42.700;23.304;2022-11-20T03:14:48;94422.94;;;18.72;100.00
5500;BME280;2772;42.700;23.304;2022-11-20T03:17:15;94404.81;;;18.73;100.00
5500;BME280;2772;42.700;23.304;2022-11-20T03:19:42;94408.28;;;18.73;100.00
5500;BME280;2772;42.700;23.304;2022-11-20T03:22:09;94410.56;;;18.68;100.00
5500;BME280;2772;42.700;23.304;2022-11-20T03:24:36;94406.31;;;18.67;100.00
5500;BME280;2772;42.700;23.304;2022-11-20T03:27:05;94440.56;;;18.63;100.00
5500;BME280;2772;42.700;23.304;2022-11-20T03:29:31;94418.25;;;18.66;100.00
5500;BME280;2772;42.700;23.304;2022-11-20T03:32:00;94426.34;;;18.66;100.00
5500;BME280;2772;42.700;23.304;2022-11-20T03:34:26;94421.31;;;18.61;100.00
5500;BME280;2772;42.700;23.304;2022-11-20T03:36:53;94445.22;;;18.66;100.00
5500;BME280;2772;42.700;23.304;2022-11-20T03:39:20;94430.59;;;18.67;100.00
5500;BME280;2772;42.700;23.304;2022-11-20T03:41:46;94439.06;;;18.65;100.00
5500;BME280;2772;42.700;23.304;2022-11-20T03:44:13;94451.00;;;18.64;100.00
5500;BME280;2772;42.700;23.304;2022-11-20T03:46:40;94446.72;;;18.60;100.00
5500;BME280;2772;42.700;23.304;2022-11-20T03:49:08;94427.47;;;18.61;100.00
5500;BME280;2772;42.700;23.304;2022-11-20T03:51:35;94452.16;;;18.63;100.00
5500;BME280;2772;42.700;23.304;2022-11-20T03:54:04;94439.78;;;18.59;100.00
5500;BME280;2772;42.700;23.304;2022-11-20T03:56:33;94440.91;;;18.58;100.00
5500;BME280;2772;42.700;23.304;2022-11-20T03:59:00;94440.09;;;18.50;100.00
5500;BME280;2772;42.700;23.304;2022-11-20T04:01:30;94452.06;;;18.56;100.00
5500;BME280;2772;42.700;23.304;2022-11-20T04:03:57;94447.91;;;18.62;100.00
5500;BME280;2772;42.700;23.304;2022-11-20T04:06:27;94448.34;;;18.68;100.00
5500;BME280;2772;42.700;23.304;2022-11-20T04:08:54;94461.44;;;18.69;100.00
5500;BME280;2772;42.700;23.304;2022-11-20T04:11:23;94462.25;;;18.70;100.00
5500;BME280;2772;42.700;23.304;2022-11-20T04:13:53;94440.66;;;18.70;100.00
5500;BME280;2772;42.700;23.304;2022-11-20T04:16:21;94438.31;;;18.68;100.00
5500;BME280;2772;42.700;23.304;2022-11-20T04:18:51;94431.41;;;18.71;100.00
5500;BME280;2772;42.700;23.304;2022-11-20T04:21:18;94418.28;;;18.69;100.00
5500;BME280;2772;42.700;23.304;2022-11-20T04:23:46;94438.34;;;18.72;100.00
5500;BME280;2772;42.700;23.304;2022-11-20T04:26:13;94423.34;;;18.74;100.00
5500;BME280;2772;42.700;23.304;2022-11-20T04:28:39;94431.44;;;18.74;100.00
5500;BME280;2772;42.700;23.304;2022-11-20T04:31:07;94443.72;;;18.68;100.00
5500;BME280;2772;42.700;23.304;2022-11-20T04:33:35;94450.63;;;18.62;100.00
5500;BME280;2772;42.700;23.304;2022-11-20T04:36:03;94457.50;;;18.60;100.00
5500;BME280;2772;42.700;23.304;2022-11-20T04:38:30;94459.41;;;18.59;100.00
5500;BME280;2772;42.700;23.304;2022-11-20T04:40:59;94455.97;;;18.59;100.00
5500;BME280;2772;42.700;23.304;2022-11-20T04:43:26;94441.38;;;18.63;100.00
5500;BME280;2772;42.700;23.304;2022-11-20T04:45:54;94432.91;;;18.65;100.00
5500;BME280;2772;42.700;23.304;2022-11-20T04:48:21;94429.03;;;18.66;100.00
5500;BME280;2772;42.700;23.304;2022-11-20T04:50:48;94445.22;;;18.66;100.00
5500;BME280;2772;42.700;23.304;2022-11-20T04:53:15;94421.69;;;18.63;100.00
5500;BME280;2772;42.700;23.304;2022-11-20T04:55:42;94431.31;;;18.60;100.00
5500;BME280;2772;42.700;23.304;2022-11-20T04:58:11;94432.84;;;18.61;100.00
5500;BME280;2772;42.700;23.304;2022-11-20T05:00:38;94398.13;;;18.56;100.00
5500;BME280;2772;42.700;23.304;2022-11-20T05:03:04;94400.41;;;18.51;100.00
5500;BME280;2772;42.700;23.304;2022-11-20T05:05:33;94385.00;;;18.51;100.00
5500;BME280;2772;42.700;23.304;2022-11-20T05:08:00;94404.66;;;18.52;100.00
5500;BME280;2772;42.700;23.304;2022-11-20T05:10:27;94392.69;;;18.49;100.00
5500;BME280;2772;42.700;23.304;2022-11-20T05:12:54;94401.56;;;18.50;100.00
5500;BME280;2772;42.700;23.304;2022-11-20T05:15:22;94383.44;;;18.50;100.00
5500;BME280;2772;42.700;23.304;2022-11-20T05:17:49;94397.31;;;18.49;100.00
5500;BME280;2772;42.700;23.304;2022-11-20T05:20:16;94403.06;;;18.47;100.00
5500;BME280;2772;42.700;23.304;2022-11-20T05:22:43;94401.91;;;18.45;100.00
5500;BME280;2772;42.700;23.304;2022-11-20T05:25:11;94406.50;;;18.44;100.00
5500;BME280;2772;42.700;23.304;2022-11-20T05:27:38;94398.44;;;18.44;100.00
5500;BME280;2772;42.700;23.304;2022-11-20T05:30:06;94397.25;;;18.42;100.00
5500;BME280;2772;42.700;23.304;2022-11-20T05:32:34;94394.97;;;18.47;100.00
5500;BME280;2772;42.700;23.304;2022-11-20T05:35:01;94418.13;;;18.48;100.00
5500;BME280;2772;42.700;23.304;2022-11-20T05:37:28;94405.41;;;18.49;100.00
5500;BME280;2772;42.700;23.304;2022-11-20T05:39:54;94398.88;;;18.53;100.00
5500;BME280;2772;42.700;23.304;2022-11-20T05:42:21;94403.47;;;18.49;100.00
5500;BME280;2772;42.700;23.304;2022-11-20T05:44:57;94414.31;;;18.53;100.00
5500;BME280;2772;42.700;23.304;2022-11-20T05:47:24;94406.97;;;18.50;100.00
5500;BME280;2772;42.700;23.304;2022-11-20T05:49:52;94405.78;;;18.47;100.00
5500;BME280;2772;42.700;23.304;2022-11-20T05:52:19;94416.44;;;18.37;100.00
5500;BME280;2772;42.700;23.304;2022-11-20T05:54:46;94398.31;;;18.34;100.00
5500;BME280;2772;42.700;23.304;2022-11-20T05:57:13;94407.84;;;18.24;100.00
5500;BME280;2772;42.700;23.304;2022-11-20T05:59:40;94400.91;;;18.23;100.00
5500;BME280;2772;42.700;23.304;2022-11-20T06:02:07;94401.28;;;18.22;100.00
5500;BME280;2772;42.700;23.304;2022-11-20T06:04:34;94413.16;;;18.17;100.00
5500;BME280;2772;42.700;23.304;2022-11-20T06:07:02;94418.16;;;18.15;100.00
5500;BME280;2772;42.700;23.304;2022-11-20T06:09:29;94436.44;;;17.96;100.00
5500;BME280;2772;42.700;23.304;2022-11-20T06:11:55;94427.28;;;18.04;100.00
5500;BME280;2772;42.700;23.304;2022-11-20T06:14:22;94420.75;;;18.05;100.00
5500;BME280;2772;42.700;23.304;2022-11-20T06:16:49;94416.09;;;18.02;100.00
5500;BME280;2772;42.700;23.304;2022-11-20T06:19:16;94405.34;;;18.05;100.00
5500;BME280;2772;42.700;23.304;2022-11-20T06:21:43;94407.34;;;18.12;100.00
5500;BME280;2772;42.700;23.304;2022-11-20T06:24:11;94411.56;;;18.13;100.00
5500;BME280;2772;42.700;23.304;2022-11-20T06:26:38;94411.63;;;18.16;100.00
5500;BME280;2772;42.700;23.304;2022-11-20T06:29:05;94408.56;;;18.18;100.00
5500;BME280;2772;42.700;23.304;2022-11-20T06:31:31;94427.75;;;18.13;100.00
5500;BME280;2772;42.700;23.304;2022-11-20T06:34:00;94433.16;;;18.13;100.00
5500;BME280;2772;42.700;23.304;2022-11-20T06:36:27;94411.25;;;18.18;100.00
5500;BME280;2772;42.700;23.304;2022-11-20T06:38:54;94422.44;;;18.20;100.00
5500;BME280;2772;42.700;23.304;2022-11-20T06:41:22;94427.16;;;18.30;100.00
5500;BME280;2772;42.700;23.304;2022-11-20T06:43:49;94432.53;;;18.30;100.00
5500;BME280;2772;42.700;23.304;2022-11-20T06:46:17;94449.50;;;18.30;100.00
5500;BME280;2772;42.700;23.304;2022-11-20T06:48:45;94448.69;;;18.26;100.00
5500;BME280;2772;42.700;23.304;2022-11-20T06:51:12;94442.56;;;18.29;100.00
5500;BME280;2772;42.700;23.304;2022-11-20T06:53:39;94445.63;;;18.28;100.00
5500;BME280;2772;42.700;23.304;2022-11-20T06:56:06;94444.91;;;18.31;100.00
5500;BME280;2772;42.700;23.304;2022-11-20T06:58:36;94441.16;;;18.39;100.00
5500;BME280;2772;42.700;23.304;2022-11-20T07:01:04;94443.84;;;18.39;100.00
5500;BME280;2772;42.700;23.304;2022-11-20T07:03:31;94434.22;;;18.41;100.00
5500;BME280;2772;42.700;23.304;2022-11-20T07:05:59;94442.72;;;18.43;100.00
5500;BME280;2772;42.700;23.304;2022-11-20T07:08:29;94457.34;;;18.42;100.00
5500;BME280;2772;42.700;23.304;2022-11-20T07:10:57;94462.34;;;18.40;100.00
5500;BME280;2772;42.700;23.304;2022-11-20T07:13:25;94462.34;;;18.40;100.00
5500;BME280;2772;42.700;23.304;2022-11-20T07:15:53;94461.06;;;18.31;100.00
5500;BME280;2772;42.700;23.304;2022-11-20T07:18:22;94471.91;;;18.34;100.00
5500;BME280;2772;42.700;23.304;2022-11-20T07:20:49;94473.41;;;18.32;100.00
5500;BME280;2772;42.700;23.304;2022-11-20T07:23:16;94467.69;;;18.37;100.00
5500;BME280;2772;42.700;23.304;2022-11-20T07:25:44;94462.63;;;18.32;100.00
5500;BME280;2772;42.700;23.304;2022-11-20T07:28:10;94454.53;;;18.32;100.00
5500;BME280;2772;42.700;23.304;2022-11-20T07:30:37;94475.06;;;18.40;100.00
5500;BME280;2772;42.700;23.304;2022-11-20T07:33:05;94469.53;;;18.29;100.00
5500;BME280;2772;42.700;23.304;2022-11-20T07:35:32;94485.72;;;18.29;100.00
5500;BME280;2772;42.700;23.304;2022-11-20T07:37:59;94477.69;;;18.36;100.00
5500;BME280;2772;42.700;23.304;2022-11-20T07:40:25;94473.41;;;18.32;100.00
5500;BME280;2772;42.700;23.304;2022-11-20T07:42:54;94480.97;;;18.19;100.00
5500;BME280;2772;42.700;23.304;2022-11-20T07:45:23;94482.97;;;18.26;100.00
5500;BME280;2772;42.700;23.304;2022-11-20T07:47:50;94470.19;;;18.19;100.00
5500;BME280;2772;42.700;23.304;2022-11-20T07:50:19;94457.91;;;18.22;100.00
5500;BME280;2772;42.700;23.304;2022-11-20T07:52:45;94466.31;;;18.17;100.00
5500;BME280;2772;42.700;23.304;2022-11-20T07:55:12;94466.31;;;18.17;100.00
5500;BME280;2772;42.700;23.304;2022-11-20T07:57:39;94478.28;;;18.19;100.00
5500;BME280;2772;42.700;23.304;2022-11-20T08:00:08;94470.19;;;18.19;100.00
5500;BME280;2772;42.700;23.304;2022-11-20T08:02:36;94464.09;;;18.26;100.00
5500;BME280;2772;42.700;23.304;2022-11-20T08:05:04;94481.81;;;18.27;100.00
5500;BME280;2772;42.700;23.304;2022-11-20T08:07:36;94486.03;;;18.24;100.00
5500;BME280;2772;42.700;23.304;2022-11-20T08:10:04;94475.66;;;18.26;100.00
5500;BME280;2772;42.700;23.304;2022-11-20T08:12:30;94463.31;;;18.25;100.00
5500;BME280;2772;42.700;23.304;2022-11-20T08:15:15;94468.69;;;18.22;100.00
5500;BME280;2772;42.700;23.304;2022-11-20T08:17:42;94460.63;;;18.25;100.00
5500;BME280;2772;42.700;23.304;2022-11-20T08:20:09;94461.03;;;18.27;100.00
5500;BME280;2772;42.700;23.304;2022-11-20T08:22:37;94461.41;;;18.26;100.00
5500;BME280;2772;42.700;23.304;2022-11-20T08:25:05;94476.47;;;18.30;100.00
5500;BME280;2772;42.700;23.304;2022-11-20T08:27:31;94482.56;;;18.24;100.00
5500;BME280;2772;42.700;23.304;2022-11-20T08:29:58;94497.56;;;18.21;100.00
5500;BME280;2772;42.700;23.304;2022-11-20T08:32:25;94470.28;;;18.30;100.00
5500;BME280;2772;42.700;23.304;2022-11-20T08:34:52;94490.31;;;18.29;100.00
5500;BME280;2772;42.700;23.304;2022-11-20T08:37:18;94495.38;;;18.34;100.00
5500;BME280;2772;42.700;23.304;2022-11-20T08:39:47;94485.94;;;18.47;100.00
5500;BME280;2772;42.700;23.304;2022-11-20T08:42:13;94491.78;;;18.56;100.00
5500;BME280;2772;42.700;23.304;2022-11-20T08:44:40;94500.75;;;18.67;100.00
5500;BME280;2772;42.700;23.304;2022-11-20T08:47:08;94506.16;;;18.67;100.00
5500;BME280;2772;42.700;23.304;2022-11-20T08:49:35;94522.72;;;18.65;100.00
5500;BME280;2772;42.700;23.304;2022-11-20T08:52:01;94491.31;;;18.47;100.00
5500;BME280;2772;42.700;23.304;2022-11-20T08:54:28;94499.84;;;18.19;100.00
5500;BME280;2772;42.700;23.304;2022-11-20T08:56:56;94491.72;;;18.16;100.00
5500;BME280;2772;42.700;23.304;2022-11-20T08:59:23;94480.44;;;18.07;100.00
5500;BME280;2772;42.700;23.304;2022-11-20T09:01:50;94480.81;;;18.05;100.00
5500;BME280;2772;42.700;23.304;2022-11-20T09:04:16;94492.38;;;18.06;100.00
5500;BME280;2772;42.700;23.304;2022-11-20T09:06:43;94492.50;;;18.16;100.00
5500;BME280;2772;42.700;23.304;2022-11-20T09:09:10;94494.06;;;18.21;100.00
5500;BME280;2772;42.700;23.304;2022-11-20T09:11:37;94488.41;;;18.29;100.00
5500;BME280;2772;42.700;23.304;2022-11-20T09:14:05;94495.75;;;18.32;100.00
5500;BME280;2772;42.700;23.304;2022-11-20T09:16:32;94496.03;;;18.24;100.00
5500;BME280;2772;42.700;23.304;2022-11-20T09:18:59;94493.66;;;18.15;100.00
5500;BME280;2772;42.700;23.304;2022-11-20T09:21:26;94493.44;;;17.98;100.00
5500;BME280;2772;42.700;23.304;2022-11-20T09:23:52;94489.41;;;17.81;100.00
5500;BME280;2772;42.700;23.304;2022-11-20T09:26:19;94463.38;;;17.96;100.00
5500;BME280;2772;42.700;23.304;2022-11-20T09:28:46;94459.22;;;17.69;100.00
5500;BME280;2772;42.700;23.304;2022-11-20T09:31:21;94461.69;;;17.51;100.00
5500;BME280;2772;42.700;23.304;2022-11-20T09:33:48;94436.78;;;17.58;100.00
5500;BME280;2772;42.700;23.304;2022-11-20T09:36:15;94436.03;;;17.34;100.00
5500;BME280;2772;42.700;23.304;2022-11-20T09:38:43;94432.84;;;17.52;100.00
5500;BME280;2772;42.700;23.304;2022-11-20T09:41:25;94414.34;;;17.80;100.00
5500;BME280;2772;42.700;23.304;2022-11-20T09:44:03;94405.28;;;17.98;100.00
5500;BME280;2772;42.700;23.304;2022-11-20T09:46:42;94413.53;;;18.16;100.00
5500;BME280;2772;42.700;23.304;2022-11-20T09:49:23;94417.47;;;18.22;100.00
5500;BME280;2772;42.700;23.304;2022-11-20T09:51:57;94417.84;;;18.20;100.00
5500;BME280;2772;42.700;23.304;2022-11-20T09:54:28;94418.59;;;18.21;100.00
5500;BME280;2772;42.700;23.304;2022-11-20T09:56:59;94413.16;;;18.14;100.00
5500;BME280;2772;42.700;23.304;2022-11-20T09:59:32;94411.56;;;18.13;100.00
5500;BME280;2772;42.700;23.304;2022-11-20T10:02:03;94414.25;;;18.09;100.00
5500;BME280;2772;42.700;23.304;2022-11-20T10:04:33;94407.66;;;18.07;100.00
5500;BME280;2772;42.700;23.304;2022-11-20T10:07:04;94395.91;;;18.25;100.00
5500;BME280;2772;42.700;23.304;2022-11-20T10:09:36;94406.94;;;18.46;100.00
5500;BME280;2772;42.700;23.304;2022-11-20T10:12:13;94402.03;;;18.59;100.00
5500;BME280;2772;42.700;23.304;2022-11-20T10:14:58;94396.50;;;18.45;100.00
5500;BME280;2772;42.700;23.304;2022-11-20T10:17:51;94386.00;;;18.33;100.00
5500;BME280;2772;42.700;23.304;2022-11-20T10:20:28;94381.38;;;18.37;100.00
5500;BME280;2772;42.700;23.304;2022-11-20T10:23:22;94391.75;;;18.35;100.00
5500;BME280;2772;42.700;23.304;2022-11-20T10:26:01;94387.41;;;18.20;100.00
5500;BME280;2772;42.700;23.304;2022-11-20T10:28:37;94399.34;;;18.19;100.00
5500;BME280;2772;42.700;23.304;2022-11-20T10:31:14;94413.88;;;18.11;100.00
5500;BME280;2772;42.700;23.304;2022-11-20T10:33:45;94417.78;;;18.17;100.00
5500;BME280;2772;42.700;23.304;2022-11-20T10:36:19;94409.25;;;18.11;100.00
5500;BME280;2772;42.700;23.304;2022-11-20T10:38:50;94411.94;;;18.11;100.00
5500;BME280;2772;42.700;23.304;2022-11-20T10:41:22;94404.97;;;18.07;100.00
5500;BME280;2772;42.700;23.304;2022-11-20T10:43:54;94416.06;;;17.98;100.00
5500;BME280;2772;42.700;23.304;2022-11-20T10:46:25;94399.53;;;18.03;100.00
5500;BME280;2772;42.700;23.304;2022-11-20T10:48:53;94412.19;;;17.96;100.00
5500;BME280;2772;42.700;23.304;2022-11-20T10:51:30;94389.09;;;17.95;100.00
5500;BME280;2772;42.700;23.304;2022-11-20T10:54:06;94398.22;;;17.87;100.00
5500;BME280;2772;42.700;23.304;2022-11-20T10:56:39;94420.94;;;17.86;100.00
5500;BME280;2772;42.700;23.304;2022-11-20T10:59:49;94413.97;;;17.81;100.00
5500;BME280;2772;42.700;23.304;2022-11-20T11:02:23;94397.84;;;17.52;100.00
5500;BME280;2772;42.700;23.304;2022-11-20T11:04:53;94415.94;;;17.25;100.00
5500;BME280;2772;42.700;23.304;2022-11-20T11:07:24;94452.72;;;16.65;100.00
5500;BME280;2772;42.700;23.304;2022-11-20T11:09:55;94479.19;;;15.61;100.00
5500;BME280;2772;42.700;23.304;2022-11-20T11:12:24;94471.25;;;15.14;100.00
5500;BME280;2772;42.700;23.304;2022-11-20T11:14:53;94451.50;;;15.07;100.00
5500;BME280;2772;42.700;23.304;2022-11-20T11:17:23;94442.50;;;15.15;100.00
5500;BME280;2772;42.700;23.304;2022-11-20T11:20:18;94421.41;;;15.13;100.00
5500;BME280;2772;42.700;23.304;2022-11-20T11:22:47;94419.94;;;15.16;100.00
5500;BME280;2772;42.700;23.304;2022-11-20T11:25:21;94425.91;;;15.09;100.00
5500;BME280;2772;42.700;23.304;2022-11-20T11:27:49;94422.22;;;15.33;100.00
5500;BME280;2772;42.700;23.304;2022-11-20T11:30:18;94395.97;;;15.42;100.00
5500;BME280;2772;42.700;23.304;2022-11-20T11:32:45;94402.38;;;15.37;100.00
5500;BME280;2772;42.700;23.304;2022-11-20T11:35:22;94400.19;;;15.43;100.00
5500;BME280;2772;42.700;23.304;2022-11-20T11:37:51;94404.81;;;15.27;100.00
5500;BME280;2772;42.700;23.304;2022-11-20T11:40:21;94405.59;;;15.27;100.00
5500;BME280;2772;42.700;23.304;2022-11-20T11:42:53;94390.06;;;15.17;100.00
5500;BME280;2772;42.700;23.304;2022-11-20T11:45:21;94425.50;;;15.26;100.00
5500;BME280;2772;42.700;23.304;2022-11-20T11:47:47;94424.03;;;15.29;100.00
5500;BME280;2772;42.700;23.304;2022-11-20T11:50:17;94422.47;;;15.28;100.00
5500;BME280;2772;42.700;23.304;2022-11-20T11:52:51;94410.25;;;15.30;100.00
5500;BME280;2772;42.700;23.304;2022-11-20T11:55:27;94425.47;;;15.42;100.00
5500;BME280;2772;42.700;23.304;2022-11-20T11:58:05;94413.09;;;15.37;100.00
5500;BME280;2772;42.700;23.304;2022-11-20T12:00:33;94409.72;;;15.40;100.00
5500;BME280;2772;42.700;23.304;2022-11-20T12:03:06;94429.16;;;15.53;100.00
5500;BME280;2772;42.700;23.304;2022-11-20T12:05:39;94437.56;;;15.51;100.00
5500;BME280;2772;42.700;23.304;2022-11-20T12:08:16;94429.34;;;15.63;100.00
5500;BME280;2772;42.700;23.304;2022-11-20T12:10:46;94414.78;;;15.83;100.00
5500;BME280;2772;42.700;23.304;2022-11-20T12:13:34;94410.31;;;15.91;100.00
5500;BME280;2772;42.700;23.304;2022-11-20T12:16:03;94411.44;;;15.90;100.00
5500;BME280;2772;42.700;23.304;2022-11-20T12:18:30;94422.41;;;15.81;100.00
5500;BME280;2772;42.700;23.304;2022-11-20T12:21:07;94415.94;;;15.82;100.00
5500;BME280;2772;42.700;23.304;2022-11-20T12:23:45;94428.00;;;15.73;100.00
5500;BME280;2772;42.700;23.304;2022-11-20T12:26:22;94410.63;;;15.86;100.00
5500;BME280;2772;42.700;23.304;2022-11-20T12:29:02;94423.38;;;15.93;100.00
5500;BME280;2772;42.700;23.304;2022-11-20T12:31:46;94434.47;;;15.91;100.00
5500;BME280;2772;42.700;23.304;2022-11-20T12:34:26;94420.50;;;15.82;100.00
5500;BME280;2772;42.700;23.304;2022-11-20T12:37:04;94410.94;;;15.62;100.00
5500;BME280;2772;42.700;23.304;2022-11-20T12:39:40;94382.81;;;15.75;100.00
5500;BME280;2772;42.700;23.304;2022-11-20T12:42:34;94361.00;;;15.80;100.00
5500;BME280;2772;42.700;23.304;2022-11-20T12:45:30;94362.69;;;15.88;100.00
5500;BME280;2772;42.700;23.304;2022-11-20T12:48:22;94375.91;;;15.97;100.00
5500;BME280;2772;42.700;23.304;2022-11-20T12:50:58;94386.72;;;16.00;100.00
5500;BME280;2772;42.700;23.304;2022-11-20T12:53:35;94387.81;;;15.99;100.00
5500;BME280;2772;42.700;23.304;2022-11-20T12:56:13;94396.41;;;15.85;100.00
5500;BME280;2772;42.700;23.304;2022-11-20T12:58:50;94367.47;;;15.37;100.00
5500;BME280;2772;42.700;23.304;2022-11-20T13:01:28;94370.59;;;15.20;100.00
5500;BME280;2772;42.700;23.304;2022-11-20T13:04:12;94375.66;;;15.06;100.00
5500;BME280;2772;42.700;23.304;2022-11-20T13:06:43;94352.06;;;14.96;100.00
5500;BME280;2772;42.700;23.304;2022-11-20T13:09:13;94333.16;;;14.89;100.00
5500;BME280;2772;42.700;23.304;2022-11-20T13:11:45;94342.25;;;14.85;100.00
5500;BME280;2772;42.700;23.304;2022-11-20T13:14:26;94367.66;;;14.91;100.00